Goetzville, MI (49736)

1:10 AM EDT on September 05, 2015 (GMT -0400)
Rocky Point | | Change Station
CLOSE
Current Station
Personal Weather Station
Location: Pickford, MI
Elevation: 574 ft
Nearby Weather Stations

Elev 574 ft 46.18 °N, 84.12 °W | Updated 1 minute ago

Mostly Cloudy
Mostly Cloudy
71.1 °F
Feels Like 71 °F
N
0.7
Wind Variable Wind from South
Gusts 1.3 mph

Today
High -- | Low -- °F
--% Chance of Precip.
Yesterday
High -- | Low -- °F
Precip. -- in
7:01 AM 8:07 PM
Waning Gibbous, 52% visible
Pressure 30.09 in
Visibility 10.0 miles
Clouds Overcast 9000 ft
Heat Index 71 °F
Dew Point 65 °F
Humidity 82%
Rainfall 0.00 in
Snow Depth Not available.
UV 0 out of 12
Pollen 10.10 out of 12
Air Quality Not available.
Flu Activity Not available.
METAR KDRM 050455Z AUTO 12004KT 10SM OVC090 22/15 A3009 RMK AO2 T02180153
Pressure 30.09 in
Visibility 10.0 miles
Clouds Overcast 9000 ft
Heat Index 71 °F
Dew Point 65 °F
Humidity 82%
Rainfall 0.00 in
Snow Depth Not available.
UV 0 out of 12
Pollen 10.10 out of 12
Air Quality Not available.
Flu Activity Not available.
METAR KDRM 050455Z AUTO 12004KT 10SM OVC090 22/15 A3009 RMK AO2 T02180153
Nowcast | as of 1:00 am EDT on September 5, 2015

At 2 am...partly cloudy. Areas of fog. Temperature 69. East winds 7 mph. At 4 am...partly cloudy. Areas of fog. Temperature 67. East winds 7 mph. At 6 am...mostly cloudy. Areas of fog. Temperature 66. East winds 7 mph. At 8 am...mostly cloudy. Temperature 65. East winds 6 mph.

×

10-Day Weather Forecast

×

Almanac

Astronomy

Sep. 05, 2015 Rise Set
Actual Time
Civil Twilight
Nautical Twilight
Astronomical Twilight
Moon
Length of Visible Light
Length of Day
Tomorrow will be .
, % of the Moon is Illuminated

Today's Extremes

State Highs State Lows

Community

WunderPhotos

Upload Photos

1,852,426 photos uploaded!

WunderBlogs® & News

Nearby

Air Quality

  Air Quality AQ Index Pollutant
Not available.

Snow Depth

Station Depth Elevation

Earthquake Activity

City Distance Mag. Time & Date
Minimum magnitude displayed is 2.5.

Coastal Water Temperatures

Place Temperature

Stations

Nearby Weather Stations

Station Location Temp. Windchill Dew Point Humidity Wind Precip. Elev Updated Type